Time;durP1;ratioP1;P1;durP2;ratioP2;P2;SDS_P1;SDS_P2;PMS_P1;PMS_P2;Temp;Humidity;BMP_temperature;BMP_pressure;BME280_temperature;BME280_humidity;BME280_pressure;Samples;Min_cycle;Max_cycle;Signal;HPM_P1;HPM_P2
2022/02/26 00:01:26;;;;;;;;;;;22.00;30.60;;;;;;5074980;28;19979;-53
2022/02/26 00:03:51;;;;;;;;;;;21.90;30.60;;;;;;5076247;28;19912;-50
2022/02/26 00:06:17;;;;;;;;;;;21.90;30.60;;;;;;5063487;28;20000;-51
2022/02/26 00:08:43;;;;;;;;;;;21.90;30.60;;;;;;5056253;28;19966;-48
2022/02/26 00:11:08;;;;;;;;;;;21.90;30.50;;;;;;5073601;28;19912;-53
2022/02/26 00:13:34;;;;;;;;;;;21.90;30.50;;;;;;5075865;28;19909;-50
2022/02/26 00:16:00;;;;;;;;;;;21.90;30.60;;;;;;5057922;28;19913;-49
2022/02/26 00:18:26;;;;;;;;;;;21.90;30.50;;;;;;5055741;28;19943;-53
2022/02/26 00:20:52;;;;;;;;;;;21.90;30.50;;;;;;5071648;28;19966;-47
2022/02/26 00:23:18;;;;;;;;;;;21.90;30.50;;;;;;5074775;28;19909;-50
2022/02/26 00:25:43;;;;;;;;;;;21.90;30.50;;;;;;5075600;28;19920;-49
2022/02/26 00:28:09;;;;;;;;;;;21.90;30.50;;;;;;5075019;28;19909;-45
2022/02/26 00:30:35;;;;;;;;;;;21.90;30.50;;;;;;5075224;28;19908;-47
2022/02/26 00:33:00;;;;;;;;;;;21.90;30.40;;;;;;5064496;28;19966;-45
2022/02/26 00:35:26;;;;;;;;;;;21.90;30.40;;;;;;5068476;28;19982;-46
2022/02/26 00:37:52;;;;;;;;;;;21.90;30.40;;;;;;5065823;28;19936;-48
2022/02/26 00:40:18;;;;;;;;;;;21.90;30.40;;;;;;5067957;28;20239;-45
2022/02/26 00:42:43;;;;;;;;;;;21.90;30.40;;;;;;5074456;28;19908;-48
2022/02/26 00:45:09;;;;;;;;;;;21.90;30.40;;;;;;5075557;28;20354;-48
2022/02/26 00:47:35;;;;;;;;;;;21.90;30.40;;;;;;5074554;28;19919;-50
2022/02/26 00:50:02;;;;;;;;;;;21.90;30.40;;;;;;5074395;28;19908;-47
2022/02/26 00:52:30;;;;;;;;;;;21.90;30.30;;;;;;5060186;28;19909;-47
2022/02/26 00:54:56;;;;;;;;;;;21.90;30.30;;;;;;5073906;28;19908;-46
2022/02/26 00:57:22;;;;;;;;;;;21.90;30.30;;;;;;5069204;28;19963;-50
2022/02/26 00:59:48;;;;;;;;;;;21.90;30.30;;;;;;5058572;28;19963;-49
2022/02/26 01:02:13;;;;;;;;;;;21.90;30.30;;;;;;5055548;28;19916;-46
2022/02/26 01:04:40;;;;;;;;;;;21.80;30.30;;;;;;5041210;28;19909;-46
2022/02/26 01:07:06;;;;;;;;;;;21.80;30.40;;;;;;5075939;28;20196;-47
2022/02/26 01:09:31;;;;;;;;;;;21.80;30.30;;;;;;5060079;28;20229;-46
2022/02/26 01:11:57;;;;;;;;;;;21.80;30.30;;;;;;5058470;28;19908;-48
2022/02/26 01:14:23;;;;;;;;;;;21.80;30.30;;;;;;5058606;28;19987;-45
2022/02/26 01:16:49;;;;;;;;;;;21.80;30.30;;;;;;5063804;28;19916;-46
2022/02/26 01:19:15;;;;;;;;;;;21.80;30.30;;;;;;5056694;28;19966;-48
2022/02/26 01:21:41;;;;;;;;;;;21.80;30.30;;;;;;5075056;28;20363;-48
2022/02/26 01:24:06;;;;;;;;;;;21.80;30.20;;;;;;5062581;28;20308;-45
2022/02/26 01:26:33;;;;;;;;;;;21.80;30.20;;;;;;5075095;28;19909;-45
2022/02/26 01:28:59;;;;;;;;;;;21.80;30.20;;;;;;5062556;28;19959;-47
2022/02/26 01:31:25;;;;;;;;;;;21.80;30.20;;;;;;5055156;28;19908;-48
2022/02/26 01:33:50;;;;;;;;;;;21.80;30.20;;;;;;5044837;28;19915;-46
2022/02/26 01:36:16;;;;;;;;;;;21.80;30.20;;;;;;5052472;28;20011;-47
2022/02/26 01:38:42;;;;;;;;;;;21.80;30.20;;;;;;5059872;28;20312;-49
2022/02/26 01:41:08;;;;;;;;;;;21.80;30.20;;;;;;5075480;28;20391;-46
2022/02/26 01:43:34;;;;;;;;;;;21.80;30.20;;;;;;5061061;28;19921;-47
2022/02/26 01:46:00;;;;;;;;;;;21.70;30.20;;;;;;5054755;28;19978;-46
2022/02/26 01:48:26;;;;;;;;;;;21.80;30.90;;;;;;5061013;28;19908;-48
2022/02/26 01:50:52;;;;;;;;;;;21.70;30.20;;;;;;5075811;28;19939;-47
2022/02/26 01:53:18;;;;;;;;;;;21.70;30.20;;;;;;5061493;28;19919;-44
2022/02/26 01:55:43;;;;;;;;;;;21.70;30.20;;;;;;5072506;28;19924;-46
2022/02/26 01:58:09;;;;;;;;;;;21.70;30.10;;;;;;5051480;28;19909;-49
2022/02/26 02:00:35;;;;;;;;;;;21.70;30.10;;;;;;5055619;28;19970;-47
2022/02/26 02:03:01;;;;;;;;;;;21.70;30.10;;;;;;5045935;28;19909;-44
2022/02/26 02:05:27;;;;;;;;;;;21.70;30.00;;;;;;5078250;28;20022;-46
2022/02/26 02:07:53;;;;;;;;;;;21.70;30.10;;;;;;5031678;28;20282;-51
2022/02/26 02:10:20;;;;;;;;;;;21.70;30.10;;;;;;5076561;28;19908;-52
2022/02/26 02:12:46;;;;;;;;;;;21.70;30.10;;;;;;5053093;28;19995;-52
2022/02/26 02:15:11;;;;;;;;;;;21.70;30.10;;;;;;5076654;28;19952;-52
2022/02/26 02:17:37;;;;;;;;;;;21.70;30.10;;;;;;5038328;28;20007;-49
2022/02/26 02:20:03;;;;;;;;;;;21.70;30.10;;;;;;5073009;28;19920;-48
2022/02/26 02:22:29;;;;;;;;;;;21.70;30.10;;;;;;5053909;28;19961;-51
2022/02/26 02:24:54;;;;;;;;;;;21.70;30.00;;;;;;5057615;28;19913;-46
2022/02/26 02:27:21;;;;;;;;;;;21.70;30.00;;;;;;5056867;28;19908;-51
2022/02/26 02:29:46;;;;;;;;;;;21.70;30.00;;;;;;5078120;28;19909;-50
2022/02/26 02:32:12;;;;;;;;;;;21.70;30.00;;;;;;5059983;28;20350;-50
2022/02/26 02:34:38;;;;;;;;;;;21.70;30.00;;;;;;5056833;28;19970;-48
2022/02/26 02:37:03;;;;;;;;;;;21.70;30.00;;;;;;5077753;28;19912;-45
2022/02/26 02:39:29;;;;;;;;;;;21.70;30.00;;;;;;5069439;28;19917;-50
2022/02/26 02:41:55;;;;;;;;;;;21.70;30.10;;;;;;5076941;28;20278;-48
2022/02/26 02:44:20;;;;;;;;;;;21.70;30.00;;;;;;5073052;28;19921;-47
2022/02/26 02:46:46;;;;;;;;;;;21.70;30.00;;;;;;5056143;28;19908;-49
2022/02/26 02:49:12;;;;;;;;;;;21.70;30.00;;;;;;5055205;28;19919;-45
2022/02/26 02:51:37;;;;;;;;;;;21.70;30.00;;;;;;5071717;28;20324;-50
2022/02/26 02:54:03;;;;;;;;;;;21.60;29.90;;;;;;5065615;28;19909;-46
2022/02/26 02:56:29;;;;;;;;;;;21.70;30.00;;;;;;5063738;28;19916;-45
2022/02/26 02:58:55;;;;;;;;;;;21.60;29.90;;;;;;5076678;28;19919;-47
2022/02/26 03:01:21;;;;;;;;;;;21.60;29.90;;;;;;5078001;28;20327;-46
2022/02/26 03:03:47;;;;;;;;;;;21.60;29.90;;;;;;5069764;28;19908;-46
2022/02/26 03:06:12;;;;;;;;;;;21.60;29.90;;;;;;5057842;28;19909;-48
2022/02/26 03:08:38;;;;;;;;;;;21.60;29.90;;;;;;5061318;28;19944;-49
2022/02/26 03:11:04;;;;;;;;;;;21.60;29.90;;;;;;5067069;28;19912;-47
2022/02/26 03:13:29;;;;;;;;;;;21.60;29.90;;;;;;5073383;28;19908;-46
2022/02/26 03:15:56;;;;;;;;;;;21.60;29.90;;;;;;5057811;28;19916;-48
2022/02/26 03:18:22;;;;;;;;;;;21.60;29.90;;;;;;5071365;28;19920;-48
2022/02/26 03:20:48;;;;;;;;;;;21.60;29.90;;;;;;5077240;28;20308;-48
2022/02/26 03:23:17;;;;;;;;;;;21.50;29.80;;;;;;5074072;28;19908;-48
2022/02/26 03:25:44;;;;;;;;;;;21.60;29.90;;;;;;5076605;28;20335;-47
2022/02/26 03:28:10;;;;;;;;;;;21.50;29.80;;;;;;5075760;28;19991;-48
2022/02/26 03:30:36;;;;;;;;;;;21.60;29.90;;;;;;5077346;28;19968;-50
2022/02/26 03:33:01;;;;;;;;;;;21.50;29.80;;;;;;5073609;28;19920;-50
2022/02/26 03:35:27;;;;;;;;;;;21.50;29.80;;;;;;5075315;28;19947;-46
2022/02/26 03:37:53;;;;;;;;;;;21.50;29.80;;;;;;5075983;28;19909;-49
2022/02/26 03:40:18;;;;;;;;;;;21.50;29.80;;;;;;5076972;28;19939;-46
2022/02/26 03:42:46;;;;;;;;;;;21.50;29.80;;;;;;5074792;28;19909;-45
2022/02/26 03:45:11;;;;;;;;;;;21.50;29.90;;;;;;5075303;28;19908;-52
2022/02/26 03:47:37;;;;;;;;;;;21.50;29.90;;;;;;5075159;28;20285;-47
2022/02/26 03:50:03;;;;;;;;;;;21.40;29.90;;;;;;5064840;28;19919;-47
2022/02/26 03:52:29;;;;;;;;;;;21.40;29.90;;;;;;5061816;28;19909;-48
2022/02/26 03:54:55;;;;;;;;;;;21.40;29.90;;;;;;5065842;28;20246;-47
2022/02/26 03:57:22;;;;;;;;;;;21.40;29.90;;;;;;5060966;28;19920;-46
2022/02/26 03:59:47;;;;;;;;;;;21.40;29.90;;;;;;5072295;28;19919;-47
2022/02/26 04:02:13;;;;;;;;;;;21.40;29.90;;;;;;5075661;28;20027;-47
2022/02/26 04:04:39;;;;;;;;;;;21.40;29.90;;;;;;5066786;28;19909;-47
2022/02/26 04:07:05;;;;;;;;;;;21.40;29.90;;;;;;5058346;28;20003;-47
2022/02/26 04:09:31;;;;;;;;;;;21.40;29.90;;;;;;5074870;28;19913;-48
2022/02/26 04:11:56;;;;;;;;;;;21.40;29.90;;;;;;5074360;28;20339;-46
2022/02/26 04:14:22;;;;;;;;;;;21.40;29.90;;;;;;5069116;28;20343;-46
2022/02/26 04:16:48;;;;;;;;;;;21.40;29.90;;;;;;5067917;28;19951;-46
2022/02/26 04:19:13;;;;;;;;;;;21.40;29.90;;;;;;5070205;28;19919;-49
2022/02/26 04:21:39;;;;;;;;;;;21.40;29.90;;;;;;5066682;28;19908;-54
2022/02/26 04:24:05;;;;;;;;;;;21.40;29.90;;;;;;5074776;28;19908;-50
2022/02/26 04:26:31;;;;;;;;;;;21.40;29.90;;;;;;5074886;28;19966;-51
2022/02/26 04:28:56;;;;;;;;;;;21.40;29.90;;;;;;5075050;28;19913;-47
2022/02/26 04:31:23;;;;;;;;;;;21.40;29.90;;;;;;5075289;28;19912;-49
2022/02/26 04:33:48;;;;;;;;;;;21.40;29.90;;;;;;5066886;28;19912;-51
2022/02/26 04:36:14;;;;;;;;;;;21.40;29.90;;;;;;5069776;28;19943;-49
2022/02/26 04:38:40;;;;;;;;;;;21.40;29.90;;;;;;5070921;28;19912;-50
2022/02/26 04:41:06;;;;;;;;;;;21.40;29.90;;;;;;5075124;28;19940;-48
2022/02/26 04:43:33;;;;;;;;;;;21.40;29.90;;;;;;5068693;28;19913;-47
2022/02/26 04:45:58;;;;;;;;;;;21.40;29.90;;;;;;5060562;28;19908;-47
2022/02/26 04:48:24;;;;;;;;;;;21.40;29.90;;;;;;5074417;28;19919;-45
2022/02/26 04:50:50;;;;;;;;;;;21.30;29.80;;;;;;5059010;28;19974;-49
2022/02/26 04:53:15;;;;;;;;;;;21.40;29.90;;;;;;5063878;28;19967;-46
2022/02/26 04:55:42;;;;;;;;;;;21.40;29.90;;;;;;5074943;28;20349;-46
2022/02/26 04:58:07;;;;;;;;;;;21.40;29.90;;;;;;5062521;28;19913;-49
2022/02/26 05:00:34;;;;;;;;;;;21.40;29.90;;;;;;5069818;28;20061;-49
2022/02/26 05:02:59;;;;;;;;;;;21.30;29.80;;;;;;5055496;28;19908;-46
2022/02/26 05:05:25;;;;;;;;;;;21.30;29.80;;;;;;5055977;28;19920;-49
2022/02/26 05:07:51;;;;;;;;;;;21.30;29.80;;;;;;5073319;28;19938;-46
2022/02/26 05:10:16;;;;;;;;;;;21.40;29.90;;;;;;5058380;28;19952;-48
2022/02/26 05:12:42;;;;;;;;;;;21.30;29.80;;;;;;5071689;28;19966;-47
2022/02/26 05:15:08;;;;;;;;;;;21.30;29.80;;;;;;5068672;28;19974;-48
2022/02/26 05:17:33;;;;;;;;;;;21.30;29.80;;;;;;5075262;28;19924;-47
2022/02/26 05:19:59;;;;;;;;;;;21.30;29.90;;;;;;5061301;28;20327;-45
2022/02/26 05:22:25;;;;;;;;;;;21.30;29.80;;;;;;5071587;28;20004;-46
2022/02/26 05:24:50;;;;;;;;;;;21.30;29.80;;;;;;5073949;28;19947;-45
2022/02/26 05:27:16;;;;;;;;;;;21.30;29.90;;;;;;5074890;28;19909;-49
2022/02/26 05:29:42;;;;;;;;;;;21.30;29.90;;;;;;5074881;28;19912;-49
2022/02/26 05:32:07;;;;;;;;;;;21.30;29.90;;;;;;5074809;28;20301;-49
2022/02/26 05:34:33;;;;;;;;;;;21.30;29.80;;;;;;5059053;28;19908;-44
2022/02/26 05:36:59;;;;;;;;;;;21.20;29.80;;;;;;5072951;28;19924;-50
2022/02/26 05:39:24;;;;;;;;;;;21.20;29.80;;;;;;5073758;28;19908;-45
2022/02/26 05:41:50;;;;;;;;;;;21.20;29.80;;;;;;5078277;28;20252;-49
2022/02/26 05:44:16;;;;;;;;;;;21.20;29.80;;;;;;5078183;28;20232;-46
2022/02/26 05:46:41;;;;;;;;;;;21.20;29.90;;;;;;5077152;28;20061;-45
2022/02/26 05:49:07;;;;;;;;;;;21.20;29.90;;;;;;5077767;28;19908;-46
2022/02/26 05:51:33;;;;;;;;;;;21.20;29.90;;;;;;5078232;28;19913;-48
2022/02/26 05:53:58;;;;;;;;;;;21.20;29.80;;;;;;5066492;28;20003;-46
2022/02/26 05:56:24;;;;;;;;;;;21.20;29.80;;;;;;5066491;28;19916;-50
2022/02/26 05:58:50;;;;;;;;;;;21.20;29.80;;;;;;5077084;28;19909;-46
2022/02/26 06:01:15;;;;;;;;;;;21.20;30.30;;;;;;5073756;28;19915;-50
2022/02/26 06:03:41;;;;;;;;;;;21.20;29.80;;;;;;5077900;28;19909;-47
2022/02/26 06:06:06;;;;;;;;;;;21.20;29.80;;;;;;5066037;28;19909;-48
2022/02/26 06:08:32;;;;;;;;;;;21.20;29.80;;;;;;5076944;28;20031;-48
2022/02/26 06:10:58;;;;;;;;;;;21.20;29.80;;;;;;5062877;28;19908;-48
2022/02/26 06:13:24;;;;;;;;;;;21.20;29.80;;;;;;5077524;28;20327;-47
2022/02/26 06:15:50;;;;;;;;;;;21.10;29.80;;;;;;5072637;28;20216;-50
2022/02/26 06:18:15;;;;;;;;;;;21.10;29.80;;;;;;5078338;28;19909;-49
2022/02/26 06:20:41;;;;;;;;;;;21.10;29.80;;;;;;5059831;28;20319;-46
2022/02/26 06:23:07;;;;;;;;;;;21.10;29.80;;;;;;5063905;28;19965;-47
2022/02/26 06:25:32;;;;;;;;;;;21.10;29.80;;;;;;5076984;28;20264;-45
2022/02/26 06:27:58;;;;;;;;;;;21.10;29.80;;;;;;5077527;28;20223;-47
2022/02/26 06:30:26;;;;;;;;;;;21.10;29.70;;;;;;5077692;28;19904;-51
2022/02/26 06:32:52;;;;;;;;;;;21.10;29.70;;;;;;5058429;28;19912;-53
2022/02/26 06:35:18;;;;;;;;;;;21.10;29.70;;;;;;5068302;28;19908;-52
2022/02/26 06:37:43;;;;;;;;;;;21.10;29.70;;;;;;5061900;28;19927;-50
2022/02/26 06:40:09;;;;;;;;;;;21.10;29.70;;;;;;5064195;28;20220;-50
2022/02/26 06:42:35;;;;;;;;;;;21.10;29.70;;;;;;5060649;28;19920;-46
2022/02/26 06:45:00;;;;;;;;;;;21.10;29.70;;;;;;5076222;28;20023;-46
2022/02/26 06:47:26;;;;;;;;;;;21.10;29.70;;;;;;5077902;28;19919;-48
2022/02/26 06:49:52;;;;;;;;;;;21.10;29.70;;;;;;5065971;28;19912;-46
2022/02/26 06:52:17;;;;;;;;;;;21.10;29.70;;;;;;5060532;28;19931;-51
2022/02/26 06:54:43;;;;;;;;;;;21.00;29.60;;;;;;5067621;28;19920;-47
2022/02/26 06:57:09;;;;;;;;;;;21.10;29.70;;;;;;5057740;28;20320;-46
2022/02/26 06:59:34;;;;;;;;;;;21.00;29.60;;;;;;5063365;28;19912;-47
2022/02/26 07:02:00;;;;;;;;;;;21.00;29.60;;;;;;5057344;28;19948;-45
2022/02/26 07:04:26;;;;;;;;;;;21.00;29.70;;;;;;5063045;28;20003;-47
2022/02/26 07:06:51;;;;;;;;;;;21.00;29.60;;;;;;5062657;28;19912;-48
2022/02/26 07:09:18;;;;;;;;;;;21.00;29.60;;;;;;5068052;28;20231;-48
2022/02/26 07:11:44;;;;;;;;;;;21.00;29.60;;;;;;5057209;28;20338;-45
2022/02/26 07:14:10;;;;;;;;;;;21.00;29.60;;;;;;5066375;28;20338;-49
2022/02/26 07:16:36;;;;;;;;;;;21.00;29.60;;;;;;5077017;28;20011;-48
2022/02/26 07:19:03;;;;;;;;;;;21.00;29.60;;;;;;5076060;28;20054;-47
2022/02/26 07:21:28;;;;;;;;;;;21.00;29.70;;;;;;5066600;28;20338;-45
2022/02/26 07:23:56;;;;;;;;;;;21.00;29.70;;;;;;5076046;28;19956;-49
2022/02/26 07:26:28;;;;;;;;;;;21.00;29.70;;;;;;5076838;28;20005;-46
2022/02/26 07:28:54;;;;;;;;;;;21.00;30.10;;;;;;5069066;28;19955;-48
2022/02/26 07:31:20;;;;;;;;;;;21.00;29.70;;;;;;5071084;28;20008;-50
2022/02/26 07:33:45;;;;;;;;;;;21.00;29.70;;;;;;5069860;28;19912;-46
2022/02/26 07:36:12;;;;;;;;;;;21.00;29.70;;;;;;5071589;28;19922;-47
2022/02/26 07:38:38;;;;;;;;;;;21.00;29.70;;;;;;5072184;28;19948;-48
2022/02/26 07:41:06;;;;;;;;;;;21.00;29.70;;;;;;5071753;28;19934;-49
2022/02/26 07:43:32;;;;;;;;;;;21.00;29.70;;;;;;5076474;28;20062;-50
2022/02/26 07:45:58;;;;;;;;;;;21.00;29.70;;;;;;5076568;28;20319;-45
2022/02/26 07:48:24;;;;;;;;;;;21.00;29.70;;;;;;5075544;28;19973;-48
2022/02/26 07:50:50;;;;;;;;;;;20.90;29.60;;;;;;5073161;28;20258;-48
2022/02/26 07:53:15;;;;;;;;;;;20.90;29.60;;;;;;5073061;28;19920;-45
2022/02/26 07:55:41;;;;;;;;;;;20.90;29.60;;;;;;5067397;28;19928;-49
2022/02/26 07:58:07;;;;;;;;;;;20.90;29.60;;;;;;5074595;28;19959;-45
2022/02/26 08:00:33;;;;;;;;;;;21.00;29.60;;;;;;5055673;28;19915;-45
2022/02/26 08:03:00;;;;;;;;;;;20.90;29.60;;;;;;5063614;28;19908;-48
2022/02/26 08:05:27;;;;;;;;;;;21.00;29.70;;;;;;5075275;28;19939;-46
2022/02/26 08:07:53;;;;;;;;;;;20.90;29.70;;;;;;5066023;28;19912;-44
2022/02/26 08:10:21;;;;;;;;;;;20.90;29.60;;;;;;5075979;28;19919;-44
2022/02/26 08:12:47;;;;;;;;;;;21.00;29.70;;;;;;5064718;28;19916;-46
2022/02/26 08:15:13;;;;;;;;;;;20.90;29.70;;;;;;5074963;28;19991;-51
2022/02/26 08:17:41;;;;;;;;;;;20.90;29.70;;;;;;5075374;28;20069;-48
2022/02/26 08:20:07;;;;;;;;;;;20.90;29.70;;;;;;5064516;28;19908;-51
2022/02/26 08:22:32;;;;;;;;;;;20.90;29.70;;;;;;5074647;28;20228;-47
2022/02/26 08:24:58;;;;;;;;;;;20.90;29.70;;;;;;5075638;28;19912;-46
2022/02/26 08:27:24;;;;;;;;;;;20.90;29.70;;;;;;5075284;28;19912;-48
2022/02/26 08:29:49;;;;;;;;;;;20.90;29.70;;;;;;5075760;28;19919;-44
2022/02/26 08:32:15;;;;;;;;;;;20.90;29.80;;;;;;5075278;28;19908;-45
2022/02/26 08:34:41;;;;;;;;;;;20.90;29.80;;;;;;5055363;28;19919;-47
2022/02/26 08:37:06;;;;;;;;;;;20.90;29.80;;;;;;5067125;28;19916;-46
2022/02/26 08:39:32;;;;;;;;;;;20.90;29.80;;;;;;5075565;28;19912;-47
2022/02/26 08:41:58;;;;;;;;;;;20.90;29.90;;;;;;5074152;28;19944;-51
2022/02/26 08:44:24;;;;;;;;;;;20.90;29.90;;;;;;5075580;28;19908;-47
2022/02/26 08:46:49;;;;;;;;;;;20.90;29.90;;;;;;5069591;28;20286;-52
2022/02/26 08:49:15;;;;;;;;;;;20.90;30.00;;;;;;5073104;28;19924;-49
2022/02/26 08:51:41;;;;;;;;;;;20.90;30.00;;;;;;5071742;28;19961;-48
2022/02/26 08:54:06;;;;;;;;;;;20.90;30.10;;;;;;5058503;28;19920;-53
2022/02/26 08:56:32;;;;;;;;;;;20.90;30.40;;;;;;5071231;28;19921;-49
2022/02/26 08:58:58;;;;;;;;;;;20.90;30.60;;;;;;5056648;28;20065;-45
2022/02/26 09:01:24;;;;;;;;;;;20.90;30.70;;;;;;5054065;28;19974;-47
2022/02/26 09:03:49;;;;;;;;;;;20.90;30.80;;;;;;5048202;28;19944;-50
2022/02/26 09:06:16;;;;;;;;;;;20.90;30.90;;;;;;5073910;28;19934;-46
2022/02/26 09:08:41;;;;;;;;;;;20.90;31.00;;;;;;5054476;28;19921;-45
2022/02/26 09:11:07;;;;;;;;;;;20.90;31.10;;;;;;5074336;28;20231;-44
2022/02/26 09:13:34;;;;;;;;;;;20.90;31.10;;;;;;5043423;28;20327;-44
2022/02/26 09:15:59;;;;;;;;;;;21.00;31.20;;;;;;5039210;28;19928;-46
2022/02/26 09:18:26;;;;;;;;;;;21.00;31.10;;;;;;5056959;28;19921;-48
2022/02/26 09:20:52;;;;;;;;;;;21.00;31.10;;;;;;5079328;28;19962;-44
2022/02/26 09:23:18;;;;;;;;;;;21.00;31.20;;;;;;5044888;28;19909;-49
2022/02/26 09:25:43;;;;;;;;;;;21.00;31.30;;;;;;5059250;28;19979;-45
2022/02/26 09:28:09;;;;;;;;;;;21.10;31.30;;;;;;5045176;28;19988;-45
2022/02/26 09:30:35;;;;;;;;;;;21.10;31.30;;;;;;5060209;28;19999;-42
2022/02/26 09:33:01;;;;;;;;;;;21.10;31.40;;;;;;5057036;28;19916;-44
2022/02/26 09:35:27;;;;;;;;;;;21.10;31.40;;;;;;5058952;28;20035;-45
2022/02/26 09:37:52;;;;;;;;;;;21.20;31.40;;;;;;5043420;28;19983;-45
2022/02/26 09:40:19;;;;;;;;;;;21.20;31.50;;;;;;5040271;28;19913;-45
2022/02/26 09:42:45;;;;;;;;;;;21.20;31.60;;;;;;5055533;28;19908;-43
2022/02/26 09:45:11;;;;;;;;;;;21.20;31.60;;;;;;5058660;28;19909;-44
2022/02/26 09:47:36;;;;;;;;;;;21.30;31.70;;;;;;5057205;28;20050;-46
2022/02/26 09:50:03;;;;;;;;;;;21.30;31.80;;;;;;5057275;28;19913;-44
2022/02/26 09:52:30;;;;;;;;;;;21.30;31.80;;;;;;5055910;28;19957;-44
2022/02/26 09:54:55;;;;;;;;;;;21.30;31.90;;;;;;5057824;28;20314;-44
2022/02/26 09:57:21;;;;;;;;;;;21.30;31.90;;;;;;5073308;28;19917;-43
2022/02/26 09:59:48;;;;;;;;;;;21.30;32.00;;;;;;5077510;28;19915;-47
2022/02/26 10:02:13;;;;;;;;;;;21.20;32.00;;;;;;5072651;28;19920;-46
2022/02/26 10:04:53;;;;;;;;;;;21.30;32.10;;;;;;5077726;28;19910;-48
2022/02/26 10:07:21;;;;;;;;;;;21.30;32.20;;;;;;5076469;28;20003;-48
2022/02/26 10:09:47;;;;;;;;;;;21.30;32.30;;;;;;5077824;28;19944;-48
2022/02/26 10:12:33;;;;;;;;;;;21.30;32.30;;;;;;5076219;28;19958;-45
2022/02/26 10:15:00;;;;;;;;;;;21.30;32.40;;;;;;5078304;28;19909;-45
2022/02/26 10:17:26;;;;;;;;;;;21.30;32.50;;;;;;5069082;28;20239;-47
2022/02/26 10:20:10;;;;;;;;;;;21.40;32.70;;;;;;5057978;28;20004;-46
2022/02/26 10:22:37;;;;;;;;;;;21.40;32.80;;;;;;5066342;28;19909;-47
2022/02/26 10:25:13;;;;;;;;;;;21.40;32.80;;;;;;5057502;28;19919;-47
2022/02/26 10:27:43;;;;;;;;;;;21.40;32.80;;;;;;5072646;28;20335;-46
2022/02/26 10:30:11;;;;;;;;;;;21.50;32.90;;;;;;5076251;28;19908;-45
2022/02/26 10:32:37;;;;;;;;;;;21.50;32.90;;;;;;5075472;28;19908;-46
2022/02/26 10:35:03;;;;;;;;;;;21.50;33.00;;;;;;5076666;28;19976;-45
2022/02/26 10:37:29;;;;;;;;;;;21.50;33.10;;;;;;5076726;28;19924;-48
2022/02/26 10:39:56;;;;;;;;;;;21.50;33.10;;;;;;5076692;28;20293;-49
2022/02/26 10:42:21;;;;;;;;;;;21.60;33.20;;;;;;5076610;28;19919;-48
2022/02/26 10:45:02;;;;;;;;;;;21.60;33.20;;;;;;5077150;28;19908;-45
2022/02/26 10:47:29;;;;;;;;;;;21.60;33.20;;;;;;5076039;28;19919;-48
2022/02/26 10:49:55;;;;;;;;;;;21.60;33.20;;;;;;5076821;28;19909;-47
2022/02/26 10:52:21;;;;;;;;;;;21.60;33.30;;;;;;5075175;28;19909;-50
2022/02/26 10:54:55;;;;;;;;;;;21.60;33.20;;;;;;5060919;28;19909;-48
2022/02/26 10:57:21;;;;;;;;;;;21.70;33.30;;;;;;5069512;28;20000;-45
2022/02/26 10:59:51;;;;;;;;;;;21.70;33.30;;;;;;5071814;28;20008;-46
2022/02/26 11:02:22;;;;;;;;;;;21.70;33.30;;;;;;5071738;28;19956;-44
2022/02/26 11:04:49;;;;;;;;;;;21.70;33.30;;;;;;5057515;28;19909;-47
2022/02/26 11:07:15;;;;;;;;;;;21.80;33.40;;;;;;5070770;28;19991;-49
2022/02/26 11:09:42;;;;;;;;;;;21.70;33.30;;;;;;5057055;28;19955;-47
2022/02/26 11:12:10;;;;;;;;;;;21.80;33.40;;;;;;5068611;28;19964;-50
2022/02/26 11:14:36;;;;;;;;;;;21.80;33.40;;;;;;5073340;28;19992;-53
2022/02/26 11:17:03;;;;;;;;;;;21.80;33.50;;;;;;5071144;28;20020;-49
2022/02/26 11:19:29;;;;;;;;;;;21.80;33.50;;;;;;5075580;28;19908;-47
2022/02/26 11:21:56;;;;;;;;;;;21.90;33.50;;;;;;5071363;28;19920;-49
2022/02/26 11:24:22;;;;;;;;;;;21.90;33.50;;;;;;5068915;28;19920;-47
2022/02/26 11:26:48;;;;;;;;;;;22.00;33.60;;;;;;5071720;28;20019;-47
2022/02/26 11:29:16;;;;;;;;;;;22.00;33.60;;;;;;5068344;28;19951;-45
2022/02/26 11:31:44;;;;;;;;;;;22.00;33.60;;;;;;5073591;28;19948;-43
2022/02/26 11:34:10;;;;;;;;;;;22.00;33.50;;;;;;5074363;28;19975;-44
2022/02/26 11:36:50;;;;;;;;;;;22.10;33.60;;;;;;5066498;28;20032;-50
2022/02/26 11:39:20;;;;;;;;;;;22.10;33.60;;;;;;5075217;28;19909;-43
2022/02/26 11:41:46;;;;;;;;;;;22.10;33.60;;;;;;5066676;28;19954;-44
2022/02/26 11:44:12;;;;;;;;;;;22.20;33.60;;;;;;5074154;28;19912;-43
2022/02/26 11:46:39;;;;;;;;;;;22.20;33.50;;;;;;5065025;28;19912;-44
2022/02/26 11:49:24;;;;;;;;;;;22.20;33.40;;;;;;5073934;28;19908;-42
2022/02/26 11:51:50;;;;;;;;;;;22.20;33.20;;;;;;5068835;28;19920;-42
2022/02/26 11:54:20;;;;;;;;;;;22.20;33.00;;;;;;5060832;28;19912;-47
2022/02/26 11:56:54;;;;;;;;;;;22.20;32.80;;;;;;5070028;28;20343;-47
2022/02/26 11:59:36;;;;;;;;;;;22.20;32.70;;;;;;5073862;28;19908;-46
2022/02/26 12:02:04;;;;;;;;;;;22.20;32.50;;;;;;5058218;28;19970;-45
2022/02/26 12:04:48;;;;;;;;;;;22.20;32.30;;;;;;5067508;28;19961;-46
2022/02/26 12:07:52;;;;;;;;;;;22.30;32.30;;;;;;5074317;28;19919;-46
2022/02/26 12:10:25;;;;;;;;;;;22.30;32.20;;;;;;5015839;28;19948;-43
2022/02/26 12:12:53;;;;;;;;;;;22.30;32.10;;;;;;5014460;28;20369;-43
2022/02/26 12:15:22;;;;;;;;;;;22.30;32.00;;;;;;5040749;28;19912;-43
2022/02/26 12:17:54;;;;;;;;;;;22.20;31.90;;;;;;5056772;28;20343;-44
2022/02/26 12:20:21;;;;;;;;;;;22.30;31.90;;;;;;5075523;28;19951;-43
2022/02/26 12:22:47;;;;;;;;;;;22.20;31.70;;;;;;5080354;28;19913;-43
2022/02/26 12:25:14;;;;;;;;;;;22.30;31.60;;;;;;5075059;28;19908;-45
2022/02/26 12:27:40;;;;;;;;;;;22.30;31.50;;;;;;5073426;28;19966;-43
2022/02/26 12:30:06;;;;;;;;;;;22.30;31.40;;;;;;5091468;28;19908;-52
2022/02/26 12:32:46;;;;;;;;;;;22.30;31.40;;;;;;5082801;28;19912;-47
2022/02/26 12:35:12;;;;;;;;;;;22.20;31.50;;;;;;5071527;28;19912;-49
2022/02/26 12:37:45;;;;;;;;;;;22.30;31.80;;;;;;5073219;28;19916;-47
2022/02/26 12:40:12;;;;;;;;;;;22.30;31.80;;;;;;5061213;28;19912;-44
2022/02/26 12:42:42;;;;;;;;;;;22.30;31.80;;;;;;5071084;28;19920;-43
2022/02/26 12:45:09;;;;;;;;;;;22.30;31.70;;;;;;5075457;28;19912;-43
2022/02/26 12:47:35;;;;;;;;;;;22.30;31.60;;;;;;5073464;28;19917;-43
2022/02/26 12:50:01;;;;;;;;;;;22.30;31.50;;;;;;5093404;28;20053;-47
2022/02/26 12:52:30;;;;;;;;;;;22.30;31.50;;;;;;5072825;28;20227;-43
2022/02/26 12:54:56;;;;;;;;;;;22.30;31.40;;;;;;5072836;28;19940;-47
2022/02/26 12:57:32;;;;;;;;;;;22.30;31.30;;;;;;5080042;28;20257;-44
2022/02/26 12:59:58;;;;;;;;;;;22.30;31.30;;;;;;5087656;28;20008;-45
2022/02/26 13:02:24;;;;;;;;;;;22.30;31.10;;;;;;5081642;28;19960;-45
2022/02/26 13:04:59;;;;;;;;;;;22.30;31.10;;;;;;5074509;28;19909;-46
2022/02/26 13:07:27;;;;;;;;;;;22.30;31.80;;;;;;5078015;28;19912;-44
2022/02/26 13:09:53;;;;;;;;;;;22.20;31.20;;;;;;5077487;28;19921;-52
2022/02/26 13:12:25;;;;;;;;;;;22.20;31.30;;;;;;5084883;28;19973;-47
2022/02/26 13:14:58;;;;;;;;;;;22.20;31.20;;;;;;5080576;28;19908;-48
2022/02/26 13:17:25;;;;;;;;;;;22.20;31.20;;;;;;5062488;28;19917;-45
2022/02/26 13:19:51;;;;;;;;;;;22.20;31.10;;;;;;5071844;28;19908;-46
2022/02/26 13:22:17;;;;;;;;;;;22.20;31.10;;;;;;5080660;28;20018;-44
2022/02/26 13:24:44;;;;;;;;;;;22.20;31.10;;;;;;5072052;28;19999;-45
2022/02/26 13:27:13;;;;;;;;;;;22.20;31.00;;;;;;5067600;28;20343;-46
2022/02/26 13:29:45;;;;;;;;;;;22.20;31.00;;;;;;5073236;28;19909;-44
2022/02/26 13:32:29;;;;;;;;;;;22.20;31.00;;;;;;5073039;28;19917;-48
2022/02/26 13:35:00;;;;;;;;;;;22.20;31.10;;;;;;5087298;28;19955;-43
2022/02/26 13:37:30;;;;;;;;;;;22.30;31.20;;;;;;5085793;28;19927;-42
2022/02/26 13:39:56;;;;;;;;;;;22.30;31.10;;;;;;5071561;28;19909;-44
2022/02/26 13:42:32;;;;;;;;;;;22.30;31.10;;;;;;5068471;28;19977;-43
2022/02/26 13:45:03;;;;;;;;;;;22.40;31.20;;;;;;5070702;28;19915;-43
2022/02/26 13:47:29;;;;;;;;;;;22.40;31.20;;;;;;5069723;28;19940;-52
2022/02/26 13:49:56;;;;;;;;;;;22.40;31.20;;;;;;5074381;28;19948;-48
2022/02/26 13:52:22;;;;;;;;;;;22.40;31.20;;;;;;5072521;28;20284;-50
2022/02/26 13:54:49;;;;;;;;;;;22.50;31.30;;;;;;5073704;28;19958;-54
2022/02/26 13:57:17;;;;;;;;;;;22.50;32.00;;;;;;5071323;28;19917;-46
2022/02/26 13:59:45;;;;;;;;;;;22.60;31.50;;;;;;5074166;28;19991;-53
2022/02/26 14:02:24;;;;;;;;;;;22.60;31.50;;;;;;5074948;28;20007;-47
2022/02/26 14:04:57;;;;;;;;;;;22.70;31.80;;;;;;5069555;28;19908;-47
2022/02/26 14:07:33;;;;;;;;;;;22.70;31.80;;;;;;5073910;28;19908;-50
2022/02/26 14:09:59;;;;;;;;;;;22.70;31.80;;;;;;5076728;28;19919;-46
2022/02/26 14:12:26;;;;;;;;;;;22.80;31.90;;;;;;5073337;28;19912;-53
2022/02/26 14:14:54;;;;;;;;;;;22.80;31.90;;;;;;5077310;28;19936;-47